Latest Weather Observations for Kuitpo

IDS60801

Issued at 10:51 am CST Friday 14 May 2021 (issued every 10 minutes, with the page automatically refreshed every 10 minutes)

About weather observations | Map of weather stations | Latest weather observations for SA | Other Formats
Station Details ID: 023887 Name: KUITPO FOREST RESERVE Lat: -35.17 Lon: 138.68 Height: 365.0 m
Data from the previous 72 hours. | See also: Recent months at Kuitpo
Date/Time
CST
Temp
°C
App
Temp
°C
Dew
Point
°C
Rel
Hum
%
Delta-T
°C
Wind Press
QNH
hPa
Press
MSL
hPa
Rain since
9am
mm
Dir  Spd
km/h
Gust
km/h
Spd
kts
Gust
kts
14/10:30am 10.6 7.8 8.5 87 1.0 WSW 13 20 7 11 1020.2 1020.0 0.2
14/10:00am 11.0 7.4 8.4 84 1.3 SW 17 28 9 15 1020.3 1020.1 0.0
14/09:30am 10.5 6.6 7.0 79 1.7 SW 17 26 9 14 1020.3 1020.1 0.0
14/09:00am 10.6 7.9 9.0 90 0.8 WSW 13 20 7 11 1020.1 1019.9 4.4
14/08:30am 9.8 7.1 8.9 94 0.5 SW 13 22 7 12 1019.7 1019.5 4.4
14/08:00am 9.5 6.4 9.0 97 0.3 SW 15 20 8 11 1019.4 1019.2 4.4
14/07:30am 9.2 6.1 8.7 97 0.2 WSW 15 24 8 13 1018.9 1018.8 4.4
14/07:00am 9.3 5.8 8.8 97 0.2 SW 17 26 9 14 1018.5 1018.4 4.4
14/06:30am 9.3 5.2 8.7 96 0.3 SW 20 32 11 17 1018.2 1018.0 4.0
14/06:00am 9.2 6.4 8.6 96 0.3 WSW 13 20 7 11 1017.8 1017.6 3.6
14/05:30am 9.5 6.0 8.7 95 0.4 SW 17 26 9 14 1017.5 1017.3 3.6
14/05:00am 9.6 5.6 9.0 96 0.3 SW 20 33 11 18 1017.4 1017.2 3.6
14/04:30am 10.1 6.4 9.5 96 0.3 WSW 19 32 10 17 1017.1 1016.9 3.2
14/04:00am 10.0 6.4 9.9 99 0.1 WSW 19 28 10 15 1017.1 1016.9 3.2
14/03:30am 10.1 5.9 9.8 98 0.2 WSW 22 35 12 19 1017.2 1017.0 3.0
14/03:00am 10.2 5.0 9.0 92 0.6 WSW 26 43 14 23 1017.3 1017.1 3.0
14/02:30am 10.2 5.6 8.3 88 0.9 WSW 22 33 12 18 1017.4 1017.2 2.8
14/02:00am 10.2 5.7 6.0 75 2.0 WSW 19 30 10 16 1017.5 1017.3 2.6
14/01:30am 9.3 5.3 5.1 75 1.9 W 15 20 8 11 1017.8 1017.6 2.6
14/01:00am 9.0 5.2 5.6 79 1.6 W 15 20 8 11 1017.8 1017.6 2.6
14/12:30am 8.9 4.7 5.5 79 1.6 WSW 17 26 9 14 1018.2 1018.0 2.6
14/12:00am 8.9 4.7 5.5 79 1.6 WSW 17 24 9 13 1018.3 1018.1 2.6
 
Date/Time
CST
Temp
°C
App
Temp
°C
Dew
Point
°C
Rel
Hum
%
Delta-T
°C
Wind Press
QNH
hPa
Press
MSL
hPa
Rain since
9am
mm
Dir  Spd
km/h
Gust
km/h
Spd
kts
Gust
kts
13/11:30pm 8.8 5.0 5.7 81 1.4 WSW 15 22 8 12 1018.3 1018.1 2.6
13/11:00pm 8.7 4.4 5.4 80 1.5 WSW 17 26 9 14 1018.5 1018.4 2.6
13/10:30pm 8.9 4.3 5.6 80 1.5 WSW 19 30 10 16 1018.7 1018.6 2.6
13/10:00pm 9.0 4.4 5.6 79 1.6 WSW 19 32 10 17 1018.7 1018.6 2.6
13/09:30pm 8.6 4.4 5.5 81 1.4 WSW 17 26 9 14 1018.7 1018.6 2.6
13/09:00pm 8.9 4.3 5.5 79 1.6 WSW 19 32 10 17 1018.7 1018.6 2.6
13/08:30pm 9.3 4.7 5.7 78 1.7 WSW 19 32 10 17 1018.5 1018.4 2.6
13/08:00pm 9.1 4.9 5.8 80 1.5 SW 17 28 9 15 1018.4 1018.2 2.6
13/07:30pm 9.2 5.0 5.6 78 1.7 SW 17 30 9 16 1018.4 1018.2 2.6
13/07:00pm 9.1 5.2 5.5 78 1.7 SW 15 22 8 12 1018.2 1018.0 2.6
13/06:30pm 9.4 6.0 5.8 78 1.7 SW 13 19 7 10 1017.9 1017.7 2.6
13/06:00pm 9.3 5.9 5.7 78 1.7 SW 13 20 7 11 1017.9 1017.7 2.6
13/05:30pm 9.9 5.7 5.5 74 2.0 WSW 17 28 9 15 1017.5 1017.3 2.6
13/05:00pm 10.8 6.2 6.6 75 2.0 WSW 20 30 11 16 1017.2 1017.0 2.6
13/04:30pm 11.4 6.9 6.3 71 2.4 WSW 19 30 10 16 1017.1 1016.9 2.6
13/04:00pm 11.5 7.6 7.2 75 2.1 SW 17 30 9 16 1016.8 1016.6 2.6
13/03:30pm 11.8 7.5 7.1 73 2.3 WSW 19 28 10 15 1016.5 1016.3 2.6
13/03:00pm 12.0 8.2 7.5 74 2.2 WSW 17 35 9 19 1016.3 1016.1 2.6
13/02:30pm 12.0 7.2 7.5 74 2.2 WSW 22 37 12 20 1015.9 1015.7 2.6
13/02:00pm 12.0 7.3 7.7 75 2.1 WSW 22 39 12 21 1015.9 1015.7 2.6
13/01:30pm 12.7 8.6 8.6 76 2.1 WSW 20 33 11 18 1015.8 1015.6 2.6
13/01:00pm 12.4 8.2 8.3 76 2.1 WSW 20 43 11 23 1015.7 1015.5 2.6
13/12:30pm 11.8 7.9 8.6 81 1.6 WSW 19 32 10 17 1016.0 1015.8 2.6
13/12:00pm 11.2 8.7 10.9 98 0.2 SW 15 24 8 13 1016.3 1016.1 2.6
13/11:30am 11.4 9.0 11.4 100 0.0 SW 15 24 8 13 1016.4 1016.2 2.6
13/11:00am 11.7 9.8 11.7 100 0.0 SW 13 22 7 12 1016.3 1016.1 2.6
13/10:30am 11.8 9.5 11.8 100 0.0 SW 15 22 8 12 1016.2 1015.9 2.4
13/10:00am 11.8 9.9 11.8 100 0.0 WSW 13 22 7 12 1015.7 1015.5 2.2
13/09:30am 10.0 7.6 10.0 100 0.0 WNW 13 20 7 11 1015.3 1015.1 1.6
13/09:00am 10.0 6.2 9.9 99 0.1 NW 20 32 11 17 1014.9 1014.7 0.6
13/08:30am 10.3 6.5 9.7 96 0.3 NW 20 32 11 17 1014.6 1014.4 0.0
13/08:00am 10.0 6.5 8.9 93 0.6 NNW 17 30 9 16 1014.5 1014.3 0.0
13/07:30am 10.2 7.4 8.6 90 0.8 NNW 13 24 7 13 1014.6 1014.4 0.0
13/07:00am 9.9 6.6 8.2 89 0.8 NNW 15 28 8 15 1014.5 1014.3 0.0
13/06:30am 9.9 5.6 7.8 87 1.0 NW 20 30 11 16 1014.3 1014.1 0.0
13/06:00am 9.9 5.5 7.3 84 1.3 NW 20 32 11 17 1014.3 1014.1 0.0
13/05:30am 9.8 5.4 6.7 81 1.5 NW 19 30 10 16 1014.5 1014.3 0.0
13/05:00am 9.5 5.2 5.3 75 1.9 NNW 17 28 9 15 1014.1 1013.9 0.0
13/04:30am 9.3 5.2 4.1 70 2.3 NNW 15 22 8 12 1014.4 1014.2 0.0
13/04:00am 9.4 5.0 4.8 73 2.1 NW 17 24 9 13 1014.6 1014.4 0.0
13/03:30am 9.1 5.7 5.7 79 1.6 NNW 13 22 7 12 1014.8 1014.6 0.0
13/03:00am 9.9 5.5 6.4 79 1.7 NW 19 26 10 14 1015.1 1014.9 0.0
13/02:30am 9.4 5.4 6.5 82 1.4 WNW 17 24 9 13 1015.6 1015.4 0.0
13/02:00am 9.3 5.0 5.1 75 1.9 NW 17 26 9 14 1015.8 1015.6 0.0
13/01:30am 9.0 4.0 3.6 69 2.4 NW 19 28 10 15 1015.9 1015.7 0.0
13/01:00am 8.9 4.0 3.9 71 2.2 NW 19 30 10 16 1015.8 1015.6 0.0
13/12:30am 9.0 3.9 4.2 72 2.2 NW 20 30 11 16 1016.0 1015.8 0.0
13/12:00am 9.0 4.0 4.8 75 1.9 NW 20 28 11 15 1016.3 1016.1 0.0
 
Date/Time
CST
Temp
°C
App
Temp
°C
Dew
Point
°C
Rel
Hum
%
Delta-T
°C
Wind Press
QNH
hPa
Press
MSL
hPa
Rain since
9am
mm
Dir  Spd
km/h
Gust
km/h
Spd
kts
Gust
kts
12/11:30pm 9.4 4.6 4.6 72 2.2 NW 19 26 10 14 1016.5 1016.3 0.0
12/11:00pm 9.5 5.1 4.7 72 2.2 NNW 17 26 9 14 1016.8 1016.6 0.0
12/10:30pm 9.4 5.4 5.0 74 2.0 NNW 15 20 8 11 1017.0 1016.8 0.0
12/10:00pm 9.5 5.5 5.1 74 2.0 NNW 15 20 8 11 1017.4 1017.2 0.0
12/09:30pm 9.0 5.8 5.2 77 1.7 NNW 11 15 6 8 1017.7 1017.5 0.0
12/09:00pm 9.5 5.9 4.9 73 2.1 NW 13 17 7 9 1018.0 1017.8 0.0
12/08:30pm 9.5 5.9 4.9 73 2.1 NW 13 17 7 9 1018.2 1018.0 0.0
12/08:00pm 9.5 6.3 5.1 74 2.0 NNW 11 15 6 8 1018.3 1018.1 0.0
12/07:30pm 8.6 6.0 5.9 83 1.3 NNW 9 13 5 7 1018.7 1018.6 0.0
12/07:00pm 8.9 6.0 6.3 84 1.2 NNW 11 13 6 7 1018.8 1018.7 0.0
12/06:30pm 8.6 6.1 6.4 86 1.0 NNW 9 13 5 7 1018.7 1018.6 0.0
12/06:00pm 9.4 6.1 6.5 82 1.4 NW 13 17 7 9 1018.7 1018.6 0.0
12/05:30pm 9.7 6.8 6.4 80 1.6 NW 11 15 6 8 1018.5 1018.4 0.0
12/05:00pm 10.5 8.0 6.5 76 1.9 WNW 9 15 5 8 1018.7 1018.6 0.0
12/04:30pm 11.4 8.9 6.7 73 2.3 WNW 9 15 5 8 1018.7 1018.6 0.0
12/04:00pm 11.7 8.5 6.8 72 2.4 WSW 13 20 7 11 1018.8 1018.7 0.0
12/03:30pm 12.0 8.4 6.7 70 2.6 W 15 22 8 12 1018.9 1018.8 0.0
12/03:00pm 12.8 9.2 6.6 66 3.0 W 15 20 8 11 1019.1 1018.9 0.0
12/02:30pm 13.2 10.8 6.8 65 3.1 W 9 19 5 10 1018.9 1018.8 0.0
12/02:00pm 13.1 10.2 6.7 65 3.1 NW 11 17 6 9 1019.1 1018.9 0.0
12/01:30pm 12.5 10.1 7.0 69 2.7 W 9 15 5 8 1019.5 1019.3 0.0
12/01:00pm 12.2 8.8 6.0 66 3.0 WNW 13 19 7 10 1020.2 1020.0 0.0
12/12:30pm 12.3 10.2 6.6 68 2.8 NW 7 13 4 7 1020.7 1020.5 0.0
12/12:00pm 12.9 11.0 7.4 69 2.7 N 7 13 4 7 1021.2 1021.1 0.0
12/11:30am 11.5 9.6 6.8 73 2.3 NNW 6 9 3 5 1021.6 1021.5 0.0
12/11:00am 11.4 9.4 7.3 76 2.0 NNE 7 13 4 7 1022.2 1022.0 0.0
12/10:30am 10.7 9.5 6.3 74 2.1 E 2 9 1 5 1022.6 1022.4 0.0
12/10:00am 9.8 7.8 6.2 78 1.7 NW 6 9 3 5 1022.9 1022.7 0.0
12/09:30am 9.6 7.4 6.0 78 1.7 W 7 9 4 5 1023.2 1023.1 0.0
12/09:00am 9.1 7.8 5.8 80 1.5 WSW 2 7 1 4 1023.4 1023.3 0.6
12/08:30am 8.7 7.9 6.3 85 1.1 CALM 0 0 0 0 1023.4 1023.3 0.6
12/08:00am 8.3 7.4 5.9 85 1.1 CALM 0 0 0 0 1023.2 1023.1 0.6
12/07:30am 8.1 6.3 5.4 83 1.2 W 4 7 2 4 1023.0 1022.8 0.6
12/07:00am 8.2 5.9 5.7 84 1.2 WNW 7 9 4 5 1022.9 1022.7 0.6
12/06:30am 8.2 6.8 5.7 84 1.1 NNE 2 9 1 5 1022.9 1022.7 0.6
12/06:00am 8.6 6.3 5.7 82 1.3 E 7 13 4 7 1022.4 1022.2 0.6
12/05:30am 8.3 4.8 5.6 83 1.2 E 13 20 7 11 1022.4 1022.2 0.6
12/05:00am 8.5 4.3 5.6 82 1.3 E 17 20 9 11 1022.0 1021.8 0.6
12/04:30am 8.5 5.0 5.6 82 1.3 E 13 20 7 11 1022.1 1021.9 0.6
12/04:00am 8.6 4.7 5.4 80 1.5 E 15 24 8 13 1022.1 1021.9 0.6
12/03:30am 8.7 4.0 5.3 79 1.6 ESE 19 26 10 14 1022.5 1022.3 0.6
12/03:00am 8.6 5.2 5.9 83 1.2 ESE 13 17 7 9 1023.0 1022.8 0.6
12/02:30am 8.6 5.2 5.7 82 1.3 E 13 17 7 9 1023.1 1022.9 0.6
12/02:00am 8.8 4.7 4.6 75 1.9 E 15 20 8 11 1023.2 1023.1 0.6
12/01:30am 8.4 4.6 3.8 73 2.0 ESE 13 19 7 10 1023.5 1023.4 0.6
12/01:00am 8.0 4.5 3.7 74 1.9 ESE 11 15 6 8 1023.7 1023.6 0.6
12/12:30am 8.6 4.3 3.4 70 2.3 E 15 22 8 12 1024.0 1023.9 0.6
12/12:00am 8.6 4.3 3.4 70 2.3 E 15 19 8 10 1024.1 1024.0 0.6
 
Date/Time
CST
Temp
°C
App
Temp
°C
Dew
Point
°C
Rel
Hum
%
Delta-T
°C
Wind Press
QNH
hPa
Press
MSL
hPa
Rain since
9am
mm
Dir  Spd
km/h
Gust
km/h
Spd
kts
Gust
kts
11/11:30pm 8.7 5.2 3.5 70 2.3 ESE 11 19 6 10 1024.4 1024.3 0.6
11/11:00pm 9.0 5.2 4.0 71 2.2 ESE 13 19 7 10 1024.7 1024.6 0.6
11/10:30pm 9.1 5.4 4.5 73 2.1 ESE 13 19 7 10 1024.9 1024.7 0.6
11/10:00pm 9.1 5.1 4.7 74 2.0 ESE 15 20 8 11 1024.9 1024.7 0.6
11/09:30pm 9.1 5.1 4.9 75 1.9 ESE 15 24 8 13 1024.7 1024.6 0.6
11/09:00pm 9.2 5.4 5.6 78 1.7 ESE 15 22 8 12 1024.7 1024.6 0.6
11/08:30pm 9.1 6.3 7.1 87 1.0 ESE 11 19 6 10 1024.6 1024.5 0.6
11/08:00pm 8.8 5.3 7.3 90 0.7 ESE 15 20 8 11 1024.5 1024.4 0.6
11/07:30pm 8.7 4.5 7.3 91 0.7 SE 19 30 10 16 1024.3 1024.2 0.6
11/07:00pm 9.0 5.5 7.3 89 0.8 SE 15 24 8 13 1024.2 1024.1 0.6
11/06:30pm 8.8 5.3 7.4 91 0.7 ESE 15 22 8 12 1023.8 1023.7 0.6
11/06:00pm 8.7 5.6 7.3 91 0.7 SE 13 19 7 10 1023.7 1023.6 0.6
11/05:30pm 9.2 5.7 7.2 87 1.0 SE 15 24 8 13 1023.5 1023.4 0.6
11/05:00pm 9.9 6.7 6.8 81 1.5 SE 13 20 7 11 1023.4 1023.3 0.6
11/04:30pm 10.6 7.7 6.7 77 1.9 SSE 11 17 6 9 1023.5 1023.4 0.6
11/04:00pm 10.3 6.7 6.8 79 1.7 SE 15 24 8 13 1023.3 1023.2 0.6
11/03:30pm 10.2 5.9 6.9 80 1.6 SE 19 30 10 16 1023.3 1023.2 0.6
11/03:00pm 9.8 6.1 8.1 89 0.8 ESE 17 26 9 14 1023.2 1023.1 0.6
11/02:30pm 10.0 6.6 9.1 94 0.5 SE 17 26 9 14 1023.3 1023.2 0.6
11/02:00pm 9.2 4.6 8.1 93 0.5 SE 22 35 12 19 1023.3 1023.2 0.6
11/01:30pm 10.4 7.0 7.8 84 1.3 SE 15 24 8 13 1023.1 1022.9 0.6
11/01:00pm 10.0 6.5 8.6 91 0.7 ESE 17 30 9 16 1023.3 1023.2 0.6
11/12:30pm 10.3 7.7 9.5 95 0.4 SE 13 24 7 13 1023.5 1023.4 0.6
11/12:00pm 9.6 6.2 9.0 96 0.3 ESE 17 22 9 12 1023.8 1023.7 0.6
11/11:30am 10.8 7.1 8.0 83 1.4 SE 17 24 9 13 1023.8 1023.7 0.0
11/11:00am 9.9 6.3 8.2 89 0.8 ESE 17 30 9 16 1023.9 1023.8 0.0

Other formats

Comma delimited format used in spreadsheet applications
http://www.bom.gov.au/fwo/IDS60801/IDS60801.94683.axf

JavaScript Object Notation format (JSON) in row-major order
http://www.bom.gov.au/fwo/IDS60801/IDS60801.94683.json

Data quality

Most of these data are generated automatically and are frequently updated. Quality checks on data are not normally performed. It is possible for incorrect values to appear. Refer to information at About Latest Weather Observations and please check the disclaimer before using these data.